createdAt,value
2019-01-28T00:00:12.938Z,1.20
2019-01-28T00:01:05.943Z,0.60
2019-01-28T00:02:07.052Z,0.80
2019-01-28T00:03:05.937Z,1.30
2019-01-28T00:04:06.927Z,1.00
2019-01-28T00:05:05.900Z,0.70
2019-01-28T00:06:05.931Z,1.20
2019-01-28T00:07:05.894Z,1.80
2019-01-28T00:08:05.954Z,1.20
2019-01-28T00:09:05.858Z,0.80
2019-01-28T00:10:05.941Z,1.30
2019-01-28T00:11:05.836Z,1.00
2019-01-28T00:12:05.851Z,0.70
2019-01-28T00:13:05.825Z,0.80
2019-01-28T00:14:05.908Z,1.20
2019-01-28T00:15:05.789Z,0.90
2019-01-28T00:16:05.887Z,0.70
2019-01-28T00:17:05.770Z,1.60
2019-01-28T00:18:05.821Z,0.70
2019-01-28T00:19:05.763Z,1.10
2019-01-28T00:20:05.804Z,0.80
2019-01-28T00:21:05.738Z,1.50
2019-01-28T00:22:05.862Z,0.80
2019-01-28T00:23:05.718Z,0.60
2019-01-28T00:24:05.733Z,1.10
2019-01-28T00:25:05.699Z,1.30
2019-01-28T00:26:05.748Z,0.80
2019-01-28T00:27:05.691Z,1.10
2019-01-28T00:28:05.679Z,0.50
2019-01-28T00:29:05.638Z,1.00
2019-01-28T00:30:05.691Z,0.70
2019-01-28T00:31:05.621Z,1.20
2019-01-28T00:32:05.697Z,0.70
2019-01-28T00:33:05.607Z,1.10
2019-01-28T00:34:05.699Z,1.20
2019-01-28T00:35:05.597Z,1.20
2019-01-28T00:36:05.607Z,0.60
2019-01-28T00:37:05.561Z,0.80
2019-01-28T00:38:05.699Z,0.90
2019-01-28T00:39:05.532Z,0.80
2019-01-28T00:40:05.531Z,0.70
2019-01-28T00:41:05.509Z,0.80
2019-01-28T00:42:05.547Z,0.70
2019-01-28T00:43:05.515Z,0.80
2019-01-28T00:44:05.606Z,1.40
2019-01-28T00:45:05.465Z,1.00
2019-01-28T00:46:05.472Z,1.30
2019-01-28T00:47:05.445Z,0.40
2019-01-28T00:48:05.485Z,0.80
2019-01-28T00:49:05.435Z,0.90
2019-01-28T00:50:05.515Z,0.80
2019-01-28T00:51:05.429Z,0.70
2019-01-28T00:52:05.441Z,0.90
2019-01-28T00:53:05.383Z,1.10
2019-01-28T00:54:05.467Z,1.40
2019-01-28T00:55:05.365Z,0.70
2019-01-28T00:56:05.437Z,1.10
2019-01-28T00:57:05.338Z,0.60
2019-01-28T00:58:05.368Z,1.10
2019-01-28T00:59:05.349Z,1.80
2019-01-28T01:00:05.361Z,1.40
2019-01-28T01:01:05.293Z,1.00
2019-01-28T01:02:05.375Z,1.20
2019-01-28T01:03:05.269Z,1.20
2019-01-28T01:04:05.310Z,1.30
2019-01-28T01:05:05.262Z,0.90
2019-01-28T01:06:05.303Z,1.30
2019-01-28T01:07:05.227Z,1.50
2019-01-28T01:08:05.320Z,1.70
2019-01-28T01:09:05.219Z,1.60
2019-01-28T01:10:05.228Z,0.70
2019-01-28T01:11:05.191Z,1.30
2019-01-28T01:12:05.248Z,0.90
2019-01-28T01:13:05.162Z,1.10
2019-01-28T01:14:05.199Z,0.90
2019-01-28T01:15:05.142Z,0.90
2019-01-28T01:16:05.165Z,1.70
2019-01-28T01:17:05.125Z,1.90
2019-01-28T01:18:05.185Z,1.10
2019-01-28T01:19:05.128Z,2.30
2019-01-28T01:20:05.193Z,0.80
2019-01-28T01:21:05.082Z,1.50
2019-01-28T01:22:05.102Z,2.00
2019-01-28T01:23:05.051Z,1.70
2019-01-28T01:24:05.143Z,1.50
2019-01-28T01:25:05.085Z,1.60
2019-01-28T01:26:05.132Z,2.00
2019-01-28T01:27:05.008Z,1.80
2019-01-28T01:28:05.041Z,1.30
2019-01-28T01:29:04.998Z,2.10
2019-01-28T01:30:05.059Z,1.40
2019-01-28T01:31:05.001Z,2.40
2019-01-28T01:32:04.965Z,2.30
2019-01-28T01:33:04.944Z,2.30
2019-01-28T01:34:05.036Z,2.70
2019-01-28T01:35:04.928Z,2.60
2019-01-28T01:36:27.934Z,2.40
2019-01-28T01:37:04.899Z,2.40
2019-01-28T01:38:04.904Z,1.70
2019-01-28T01:39:04.961Z,1.50
2019-01-28T01:40:04.866Z,1.30
2019-01-28T01:41:04.933Z,2.40
2019-01-28T01:42:04.845Z,2.10
2019-01-28T01:43:04.941Z,1.60
2019-01-28T01:44:04.837Z,3.10
2019-01-28T01:45:04.850Z,1.90
2019-01-28T01:46:04.800Z,1.50
2019-01-28T01:47:04.864Z,2.10
2019-01-28T01:48:04.794Z,2.00
2019-01-28T01:49:04.917Z,2.60
2019-01-28T01:50:04.752Z,1.50
2019-01-28T01:51:04.813Z,2.60
2019-01-28T01:52:04.742Z,1.70
2019-01-28T01:53:04.802Z,1.70
2019-01-28T01:54:04.716Z,1.30
2019-01-28T01:55:04.763Z,1.80
2019-01-28T01:56:04.689Z,2.10
2019-01-28T01:57:04.771Z,1.90
2019-01-28T01:58:04.680Z,1.70
2019-01-28T01:59:04.745Z,2.40
2019-01-28T02:00:04.657Z,1.80
2019-01-28T02:01:04.659Z,2.70
2019-01-28T02:02:04.623Z,2.20
2019-01-28T02:03:04.665Z,2.10
2019-01-28T02:04:04.617Z,2.10
2019-01-28T02:05:04.744Z,2.10
2019-01-28T02:06:04.580Z,1.70
2019-01-28T02:07:04.593Z,2.00
2019-01-28T02:08:04.556Z,2.20
2019-01-28T02:09:04.604Z,1.90
2019-01-28T02:10:04.569Z,1.40
2019-01-28T02:11:04.617Z,1.40
2019-01-28T02:12:04.516Z,1.50
2019-01-28T02:13:04.536Z,1.30
2019-01-28T02:14:04.493Z,3.00
2019-01-28T02:15:04.580Z,2.20
2019-01-28T02:16:04.469Z,2.30
2019-01-28T02:17:04.563Z,2.40
2019-01-28T02:18:04.465Z,2.00
2019-01-28T02:19:11.432Z,1.70
2019-01-28T02:20:04.438Z,1.70
2019-01-28T02:21:19.434Z,1.30
2019-01-28T02:22:04.402Z,1.40
2019-01-28T02:23:05.420Z,1.70
2019-01-28T02:24:04.410Z,1.80
2019-01-28T02:25:04.447Z,1.70
2019-01-28T02:26:04.361Z,1.80
2019-01-28T02:27:04.423Z,2.00
2019-01-28T02:28:04.343Z,1.80
2019-01-28T02:29:05.360Z,1.90
2019-01-28T02:30:04.489Z,1.50
2019-01-28T02:31:04.348Z,1.20
2019-01-28T02:32:04.307Z,1.90
2019-01-28T02:33:04.360Z,2.20
2019-01-28T02:34:04.272Z,2.10
2019-01-28T02:35:04.378Z,2.10
2019-01-28T02:36:04.289Z,1.80
2019-01-28T02:37:04.306Z,1.60
2019-01-28T02:38:04.236Z,2.20
2019-01-28T02:39:04.300Z,2.20
2019-01-28T02:40:04.210Z,2.00
2019-01-28T02:41:04.378Z,2.00
2019-01-28T02:42:04.188Z,2.40
2019-01-28T02:43:04.233Z,2.30
2019-01-28T02:44:04.178Z,1.50
2019-01-28T02:45:04.239Z,1.40
2019-01-28T02:46:04.156Z,1.70
2019-01-28T02:47:04.263Z,1.70
2019-01-28T02:48:04.125Z,2.00
2019-01-28T02:49:04.172Z,2.20
2019-01-28T02:50:04.108Z,1.80
2019-01-28T02:51:04.225Z,2.20
2019-01-28T02:52:04.077Z,1.80
2019-01-28T02:53:04.090Z,1.60
2019-01-28T02:54:04.053Z,1.90
2019-01-28T02:55:04.115Z,1.80
2019-01-28T02:56:04.062Z,2.00
2019-01-28T02:57:04.127Z,1.80
2019-01-28T02:58:04.010Z,1.90
2019-01-28T02:59:04.041Z,1.60
2019-01-28T03:00:03.999Z,1.70
2019-01-28T03:01:04.071Z,2.20
2019-01-28T03:02:03.999Z,0.80
2019-01-28T03:03:04.054Z,1.80
2019-01-28T03:04:03.944Z,1.30
2019-01-28T03:05:06.015Z,1.60
2019-01-28T03:06:03.938Z,1.70
2019-01-28T03:07:18.933Z,1.10
2019-01-28T03:08:03.902Z,1.00
2019-01-28T03:09:04.933Z,1.70
2019-01-28T03:10:03.878Z,1.20
2019-01-28T03:11:03.953Z,1.50
2019-01-28T03:12:03.858Z,1.20
2019-01-28T03:13:03.918Z,1.80
2019-01-28T03:14:03.840Z,1.40
2019-01-28T03:15:04.861Z,2.10
2019-01-28T03:16:03.828Z,1.60
2019-01-28T03:17:03.883Z,2.20
2019-01-28T03:18:03.795Z,1.90
2019-01-28T03:19:03.880Z,2.00
2019-01-28T03:20:03.769Z,1.80
2019-01-28T03:21:03.806Z,1.80
2019-01-28T03:22:03.758Z,1.30
2019-01-28T03:23:03.783Z,1.50
2019-01-28T03:24:03.732Z,1.40
2019-01-28T03:25:04.199Z,1.50
2019-01-28T03:26:03.717Z,1.10
2019-01-28T03:27:03.720Z,1.70
2019-01-28T03:28:03.685Z,1.50
2019-01-28T03:29:03.765Z,1.80
2019-01-28T03:30:03.668Z,2.00
2019-01-28T03:31:03.776Z,2.00
2019-01-28T03:32:03.651Z,1.90
2019-01-28T03:33:03.646Z,1.50
2019-01-28T03:34:03.615Z,1.70
2019-01-28T03:35:03.671Z,1.30
2019-01-28T03:36:03.617Z,1.20
2019-01-28T03:37:03.675Z,1.10
2019-01-28T03:38:03.579Z,1.00
2019-01-28T03:39:03.589Z,1.30
2019-01-28T03:40:03.551Z,1.30
2019-01-28T03:41:03.624Z,1.50
2019-01-28T03:42:03.539Z,2.10
2019-01-28T03:43:03.619Z,1.80
2019-01-28T03:44:03.515Z,1.40
2019-01-28T03:45:03.522Z,1.90
2019-01-28T03:46:03.481Z,1.40
2019-01-28T03:47:03.572Z,1.60
2019-01-28T03:48:03.484Z,1.40
2019-01-28T03:49:03.554Z,1.10
2019-01-28T03:50:03.444Z,1.20
2019-01-28T03:51:10.449Z,1.20
2019-01-28T03:52:03.441Z,1.30
2019-01-28T03:53:18.429Z,1.40
2019-01-28T03:54:03.412Z,1.50
2019-01-28T03:55:04.442Z,1.40
2019-01-28T03:56:03.380Z,1.30
2019-01-28T03:57:03.429Z,1.00
2019-01-28T03:58:03.355Z,0.90
2019-01-28T03:59:03.439Z,0.70
2019-01-28T04:00:03.333Z,0.90
2019-01-28T04:01:03.434Z,1.20
2019-01-28T04:02:03.345Z,1.80
2019-01-28T04:03:03.354Z,1.20
2019-01-28T04:04:03.294Z,1.50
2019-01-28T04:05:03.380Z,1.60
2019-01-28T04:06:03.265Z,0.90
2019-01-28T04:07:03.321Z,0.70
2019-01-28T04:08:03.248Z,1.30
2019-01-28T04:09:03.310Z,1.10
2019-01-28T04:10:03.224Z,1.50
2019-01-28T04:11:03.297Z,1.60
2019-01-28T04:12:03.234Z,0.90
2019-01-28T04:13:03.222Z,0.90
2019-01-28T04:14:03.183Z,1.40
2019-01-28T04:15:03.221Z,1.00
2019-01-28T04:16:03.160Z,0.90
2019-01-28T04:17:03.242Z,0.90
2019-01-28T04:18:03.147Z,1.30
2019-01-28T04:19:03.175Z,1.20
2019-01-28T04:20:03.116Z,1.00
2019-01-28T04:21:03.185Z,0.90
2019-01-28T04:22:03.095Z,1.50
2019-01-28T04:23:03.203Z,1.20
2019-01-28T04:24:03.071Z,0.70
2019-01-28T04:25:03.103Z,1.00
2019-01-28T04:26:03.046Z,1.20
2019-01-28T04:27:03.104Z,1.10
2019-01-28T04:28:03.057Z,1.10
2019-01-28T04:29:03.114Z,1.30
2019-01-28T04:30:03.012Z,0.90
2019-01-28T04:31:03.027Z,1.00
2019-01-28T04:32:02.980Z,1.10
2019-01-28T04:33:03.064Z,1.10
2019-01-28T04:34:02.959Z,1.20
2019-01-28T04:35:03.073Z,0.60
2019-01-28T04:36:02.940Z,1.00
2019-01-28T04:37:03.993Z,1.30
2019-01-28T04:38:02.927Z,1.00
2019-01-28T04:39:03.000Z,0.80
2019-01-28T04:40:02.897Z,1.40
2019-01-28T04:41:03.936Z,1.10
2019-01-28T04:42:02.880Z,0.80
2019-01-28T04:43:02.923Z,0.60
2019-01-28T04:44:02.855Z,0.70
2019-01-28T04:45:02.915Z,1.20
2019-01-28T04:46:02.832Z,0.70
2019-01-28T04:47:02.945Z,0.90
2019-01-28T04:48:02.823Z,1.10
2019-01-28T04:49:02.863Z,1.20
2019-01-28T04:50:02.792Z,0.80
2019-01-28T04:51:02.851Z,0.90
2019-01-28T04:52:02.765Z,1.30
2019-01-28T04:53:02.786Z,1.00
2019-01-28T04:54:02.746Z,1.20
2019-01-28T04:55:02.778Z,0.70
2019-01-28T04:56:02.734Z,0.90
2019-01-28T04:57:02.797Z,0.80
2019-01-28T04:58:02.715Z,0.60
2019-01-28T04:59:02.715Z,0.90
2019-01-28T05:00:02.692Z,0.80
2019-01-28T05:01:02.718Z,0.70
2019-01-28T05:02:02.671Z,1.20
2019-01-28T05:03:02.755Z,0.80
2019-01-28T05:04:02.631Z,0.90
2019-01-28T05:05:02.640Z,0.80
2019-01-28T05:06:02.638Z,1.00
2019-01-28T05:07:02.670Z,0.70
2019-01-28T05:08:02.597Z,0.40
2019-01-28T05:09:02.669Z,1.10
2019-01-28T05:10:02.566Z,1.00
2019-01-28T05:11:02.581Z,0.80
2019-01-28T05:12:02.545Z,0.80
2019-01-28T05:13:02.623Z,0.90
2019-01-28T05:14:02.587Z,1.00
2019-01-28T05:15:02.607Z,1.10
2019-01-28T05:16:02.520Z,1.50
2019-01-28T05:17:02.522Z,0.70
2019-01-28T05:18:02.507Z,0.50
2019-01-28T05:19:02.548Z,0.90
2019-01-28T05:20:02.475Z,0.90
2019-01-28T05:21:02.547Z,1.60
2019-01-28T05:22:02.465Z,0.70
2019-01-28T05:23:02.455Z,0.90
2019-01-28T05:24:02.423Z,0.90
2019-01-28T05:25:03.495Z,1.20
2019-01-28T05:26:02.404Z,1.30
2019-01-28T05:27:03.408Z,1.00
2019-01-28T05:28:02.370Z,0.80
2019-01-28T05:29:02.424Z,1.20
2019-01-28T05:30:02.354Z,1.30
2019-01-28T05:31:02.430Z,0.90
2019-01-28T05:32:02.332Z,1.00
2019-01-28T05:33:02.450Z,1.40
2019-01-28T05:34:02.319Z,0.90
2019-01-28T05:35:02.343Z,1.30
2019-01-28T05:36:02.310Z,1.30
2019-01-28T05:37:02.346Z,1.10
2019-01-28T05:38:02.274Z,1.20
2019-01-28T05:39:02.292Z,1.00
2019-01-28T05:40:02.244Z,1.30
2019-01-28T05:41:02.270Z,0.90
2019-01-28T05:42:02.215Z,1.00
2019-01-28T05:43:02.297Z,0.90
2019-01-28T05:44:02.213Z,1.60
2019-01-28T05:45:02.228Z,1.20
2019-01-28T05:46:02.189Z,1.30
2019-01-28T05:47:02.233Z,1.10
2019-01-28T05:48:02.166Z,0.60
2019-01-28T05:49:02.247Z,0.80
2019-01-28T05:50:02.137Z,1.00
2019-01-28T05:51:02.149Z,1.40
2019-01-28T05:52:02.116Z,1.10
2019-01-28T05:53:02.154Z,0.90
2019-01-28T05:54:02.105Z,1.30
2019-01-28T05:55:02.168Z,0.90
2019-01-28T05:56:02.068Z,1.20
2019-01-28T05:57:02.074Z,1.00
2019-01-28T05:58:02.054Z,1.50
2019-01-28T05:59:02.166Z,1.60
2019-01-28T06:00:02.022Z,1.30
2019-01-28T06:01:02.129Z,1.40
2019-01-28T06:02:02.025Z,0.90
2019-01-28T06:03:02.012Z,0.50
2019-01-28T06:04:01.996Z,1.20
2019-01-28T06:05:02.027Z,1.00
2019-01-28T06:06:01.953Z,1.10
2019-01-28T06:07:02.040Z,0.70
2019-01-28T06:08:01.958Z,0.90
2019-01-28T06:09:09.963Z,1.00
2019-01-28T06:10:01.914Z,0.60
2019-01-28T06:11:09.959Z,1.00
2019-01-28T06:12:01.893Z,0.90
2019-01-28T06:13:02.910Z,1.50
2019-01-28T06:14:01.876Z,1.10
2019-01-28T06:15:01.890Z,1.10
2019-01-28T06:16:01.842Z,1.10
2019-01-28T06:17:01.902Z,0.80
2019-01-28T06:18:01.840Z,1.20
2019-01-28T06:19:01.840Z,1.30
2019-01-28T06:20:01.804Z,1.30
2019-01-28T06:21:01.832Z,1.40
2019-01-28T06:22:01.782Z,1.10
2019-01-28T06:23:01.841Z,0.80
2019-01-28T06:24:01.896Z,0.90
2019-01-28T06:25:01.865Z,1.30
2019-01-28T06:26:01.735Z,1.10
2019-01-28T06:27:01.772Z,1.30
2019-01-28T06:28:01.726Z,1.00
2019-01-28T06:29:01.783Z,1.20
2019-01-28T06:30:01.730Z,1.10
2019-01-28T06:31:01.834Z,1.10
2019-01-28T06:32:01.669Z,1.10
2019-01-28T06:33:01.735Z,1.30
2019-01-28T06:34:01.650Z,1.40
2019-01-28T06:35:01.743Z,1.10
2019-01-28T06:36:01.630Z,1.40
2019-01-28T06:37:01.701Z,1.70
2019-01-28T06:38:01.606Z,1.40
2019-01-28T06:39:01.667Z,1.00
2019-01-28T06:40:01.630Z,1.20
2019-01-28T06:41:01.665Z,1.70
2019-01-28T06:42:01.588Z,1.50
2019-01-28T06:43:01.573Z,1.60
2019-01-28T06:44:01.538Z,1.10
2019-01-28T06:45:02.260Z,1.20
2019-01-28T06:46:01.518Z,1.30
2019-01-28T06:47:01.633Z,0.80
2019-01-28T06:48:01.498Z,1.60
2019-01-28T06:49:01.518Z,1.20
2019-01-28T06:50:01.487Z,1.30
2019-01-28T06:51:01.532Z,1.10
2019-01-28T06:52:01.455Z,1.30
2019-01-28T06:53:01.547Z,1.10
2019-01-28T06:54:01.463Z,1.90
2019-01-28T06:55:15.998Z,1.20
2019-01-28T06:56:01.409Z,1.10
2019-01-28T06:57:16.421Z,2.00
2019-01-28T06:58:01.392Z,1.50
2019-01-28T06:59:02.426Z,1.70
2019-01-28T07:00:01.981Z,1.30
2019-01-28T07:01:01.392Z,1.50
2019-01-28T07:02:01.346Z,1.40
2019-01-28T07:03:01.412Z,1.20
2019-01-28T07:04:01.323Z,1.50
2019-01-28T07:05:01.467Z,1.40
2019-01-28T07:06:01.300Z,1.50
2019-01-28T07:07:01.331Z,1.50
2019-01-28T07:08:01.290Z,1.10
2019-01-28T07:09:02.374Z,0.80
2019-01-28T07:10:01.283Z,1.50
2019-01-28T07:11:01.357Z,1.30
2019-01-28T07:12:01.233Z,1.30
2019-01-28T07:13:01.276Z,1.00
2019-01-28T07:14:01.216Z,1.20
2019-01-28T07:15:01.306Z,1.10
2019-01-28T07:16:01.202Z,1.80
2019-01-28T07:17:01.317Z,0.80
2019-01-28T07:18:01.180Z,1.30
2019-01-28T07:19:01.213Z,0.80
2019-01-28T07:20:01.179Z,0.60
2019-01-28T07:21:01.238Z,0.60
2019-01-28T07:22:01.188Z,0.50
2019-01-28T07:23:01.240Z,1.00
2019-01-28T07:24:01.144Z,0.70
2019-01-28T07:25:01.182Z,0.60
2019-01-28T07:26:01.098Z,0.70
2019-01-28T07:27:01.166Z,0.70
2019-01-28T07:28:01.076Z,0.80
2019-01-28T07:29:01.082Z,0.80
2019-01-28T07:30:01.040Z,0.90
2019-01-28T07:31:01.136Z,0.90
2019-01-28T07:32:01.021Z,0.60
2019-01-28T07:33:01.112Z,0.70
2019-01-28T07:34:01.018Z,0.50
2019-01-28T07:35:01.026Z,0.90
2019-01-28T07:36:01.033Z,0.90
2019-01-28T07:37:01.023Z,0.60
2019-01-28T07:38:00.958Z,0.30
2019-01-28T07:39:01.056Z,0.70
2019-01-28T07:40:00.944Z,0.50
2019-01-28T07:41:15.427Z,1.00
2019-01-28T07:42:00.913Z,0.50
2019-01-28T07:43:15.916Z,0.60
2019-01-28T07:44:00.915Z,0.60
2019-01-28T07:45:02.922Z,0.60
2019-01-28T07:46:00.892Z,0.70
2019-01-28T07:47:00.894Z,0.70
2019-01-28T07:48:03.128Z,0.90
2019-01-28T07:49:00.903Z,0.80
2019-01-28T07:50:00.835Z,0.30
2019-01-28T07:51:00.950Z,0.20
2019-01-28T07:52:00.808Z,0.60
2019-01-28T07:53:00.833Z,0.70
2019-01-28T07:54:00.805Z,0.50
2019-01-28T07:55:00.845Z,0.40
2019-01-28T07:56:00.777Z,0.50
2019-01-28T07:57:00.854Z,0.40
2019-01-28T07:58:00.798Z,0.30
2019-01-28T07:59:00.766Z,0.20
2019-01-28T08:00:00.773Z,0.40
2019-01-28T08:01:00.810Z,0.20
2019-01-28T08:02:00.709Z,0.30
2019-01-28T08:03:00.797Z,0.30
2019-01-28T08:04:00.684Z,0.30
2019-01-28T08:05:00.712Z,0.20
2019-01-28T08:06:00.910Z,0.20
2019-01-28T08:07:00.724Z,0.30
2019-01-28T08:08:00.667Z,0.20
2019-01-28T08:09:00.741Z,0.20
2019-01-28T08:10:00.660Z,0.40
2019-01-28T08:11:00.709Z,0.20
2019-01-28T08:12:00.596Z,0.30
2019-01-28T08:13:00.675Z,0.30
2019-01-28T08:14:00.571Z,0.20
2019-01-28T08:15:00.684Z,0.30
2019-01-28T08:16:00.575Z,0.20
2019-01-28T08:17:00.583Z,0.20
2019-01-28T08:18:00.533Z,0.20
2019-01-28T08:19:00.594Z,0.20
2019-01-28T08:20:00.514Z,0.20
2019-01-28T08:21:00.649Z,0.20
2019-01-28T08:22:00.493Z,0.20
2019-01-28T08:23:00.519Z,0.20
2019-01-28T08:24:00.460Z,0.20
2019-01-28T08:25:00.545Z,0.20
2019-01-28T08:26:00.442Z,0.20
2019-01-28T08:27:02.516Z,0.50
2019-01-28T08:28:00.445Z,0.30
2019-01-28T08:29:02.518Z,0.20
2019-01-28T08:30:00.427Z,0.30
2019-01-28T08:31:02.439Z,0.20
2019-01-28T08:32:00.383Z,0.10
2019-01-28T08:33:00.382Z,0.20
2019-01-28T08:34:00.357Z,0.20
2019-01-28T08:35:06.964Z,0.20
2019-01-28T08:36:00.336Z,0.20
2019-01-28T08:37:00.460Z,0.20
2019-01-28T08:38:00.318Z,0.10
2019-01-28T08:39:00.319Z,0.30
2019-01-28T08:40:00.300Z,0.40
2019-01-28T08:41:00.330Z,0.10
2019-01-28T08:42:00.278Z,0.20
2019-01-28T08:43:00.348Z,0.40
2019-01-28T08:44:00.249Z,0.20
2019-01-28T08:45:00.258Z,0.30
2019-01-28T08:46:00.224Z,0.30
2019-01-28T08:47:00.305Z,0.50
2019-01-28T08:48:00.205Z,0.10
2019-01-28T08:49:00.284Z,0.40
2019-01-28T08:50:00.260Z,0.30
2019-01-28T08:51:00.209Z,0.30
2019-01-28T08:52:00.177Z,0.20
2019-01-28T08:53:00.212Z,0.40
2019-01-28T08:54:00.154Z,0.30
2019-01-28T08:55:00.328Z,0.30
2019-01-28T08:56:00.124Z,0.20
2019-01-28T08:57:00.179Z,0.10
2019-01-28T08:58:00.100Z,0.40
2019-01-28T08:59:00.156Z,0.40
2019-01-28T09:00:00.193Z,0.20
2019-01-28T09:01:00.181Z,0.20
2019-01-28T09:02:00.076Z,0.40
2019-01-28T09:03:00.081Z,0.30
2019-01-28T09:04:00.045Z,0.20
2019-01-28T09:05:00.273Z,0.30
2019-01-28T09:06:00.007Z,0.30
2019-01-28T09:07:00.143Z,0.20
2019-01-28T09:07:59.983Z,0.30
2019-01-28T09:09:00.017Z,0.20
2019-01-28T09:09:59.986Z,0.20
2019-01-28T09:11:00.054Z,0.40
2019-01-28T09:11:59.963Z,0.30
2019-01-28T09:13:00.051Z,0.30
2019-01-28T09:13:59.919Z,0.30
2019-01-28T09:14:59.975Z,0.30
2019-01-28T09:15:59.957Z,0.20
2019-01-28T09:17:01.944Z,0.20
2019-01-28T09:17:59.889Z,0.30
2019-01-28T09:18:59.898Z,0.20
2019-01-28T09:19:59.879Z,0.30
2019-01-28T09:20:59.928Z,0.40
2019-01-28T09:21:59.890Z,0.50
2019-01-28T09:22:59.909Z,0.20
2019-01-28T09:23:59.812Z,0.20
2019-01-28T09:24:59.884Z,0.20
2019-01-28T09:25:59.790Z,0.50
2019-01-28T09:26:59.834Z,0.30
2019-01-28T09:27:59.786Z,0.20
2019-01-28T09:28:59.855Z,0.30
2019-01-28T09:29:59.747Z,0.40
2019-01-28T09:30:59.771Z,0.40
2019-01-28T09:31:59.723Z,0.60
2019-01-28T09:32:59.800Z,0.30
2019-01-28T09:33:59.696Z,0.40
2019-01-28T09:34:59.793Z,0.10
2019-01-28T09:35:59.682Z,0.50
2019-01-28T09:36:59.706Z,0.30
2019-01-28T09:37:59.671Z,0.20
2019-01-28T09:38:59.715Z,0.50
2019-01-28T09:39:59.647Z,0.40
2019-01-28T09:40:59.732Z,0.20
2019-01-28T09:41:59.625Z,0.20
2019-01-28T09:42:59.669Z,0.40
2019-01-28T09:43:59.611Z,0.20
2019-01-28T09:44:59.662Z,0.10
2019-01-28T09:45:59.583Z,0.50
2019-01-28T09:46:59.703Z,0.30
2019-01-28T09:47:59.564Z,0.10
2019-01-28T09:48:59.580Z,0.30
2019-01-28T09:49:59.538Z,0.30
2019-01-28T09:50:59.592Z,0.20
2019-01-28T09:51:59.506Z,0.30
2019-01-28T09:52:59.527Z,0.20
2019-01-28T09:53:59.503Z,0.20
2019-01-28T09:54:59.514Z,0.40
2019-01-28T09:55:59.461Z,0.30
2019-01-28T09:56:59.550Z,0.20
2019-01-28T09:57:59.465Z,0.30
2019-01-28T09:58:59.540Z,0.30
2019-01-28T09:59:59.438Z,0.20
2019-01-28T10:00:59.455Z,0.40
2019-01-28T10:01:59.392Z,0.30
2019-01-28T10:02:59.493Z,0.20
2019-01-28T10:03:59.404Z,0.30
2019-01-28T10:04:59.493Z,0.20
2019-01-28T10:05:59.353Z,0.20
2019-01-28T10:07:01.182Z,0.30
2019-01-28T10:07:59.344Z,0.40
2019-01-28T10:08:59.407Z,0.30
2019-01-28T10:09:59.301Z,0.40
2019-01-28T10:10:59.331Z,0.30
2019-01-28T10:11:59.315Z,0.20
2019-01-28T10:12:59.364Z,0.50
2019-01-28T10:13:59.260Z,0.70
2019-01-28T10:14:59.343Z,0.30
2019-01-28T10:15:59.242Z,0.40
2019-01-28T10:16:59.258Z,0.30
2019-01-28T10:17:59.262Z,0.20
2019-01-28T10:18:59.262Z,0.70
2019-01-28T10:19:59.198Z,0.40
2019-01-28T10:20:59.303Z,0.20
2019-01-28T10:21:59.181Z,0.40
2019-01-28T10:22:59.194Z,0.30
2019-01-28T10:23:59.774Z,0.20
2019-01-28T10:24:59.221Z,0.30
2019-01-28T10:25:59.138Z,0.20
2019-01-28T10:26:59.237Z,0.20
2019-01-28T10:27:59.114Z,0.40
2019-01-28T10:28:59.156Z,0.20
2019-01-28T10:29:59.103Z,0.10
2019-01-28T10:30:59.155Z,0.30
2019-01-28T10:31:59.076Z,0.20
2019-01-28T10:32:59.169Z,0.30
2019-01-28T10:33:59.066Z,0.30
2019-01-28T10:34:59.076Z,0.20
2019-01-28T10:35:59.016Z,0.20
2019-01-28T10:36:59.083Z,0.40
2019-01-28T10:37:58.995Z,0.20
2019-01-28T10:38:59.035Z,0.20
2019-01-28T10:39:58.989Z,0.30
2019-01-28T10:40:59.007Z,0.30
2019-01-28T10:41:58.951Z,0.30
2019-01-28T10:42:59.026Z,0.20
2019-01-28T10:43:59.048Z,0.30
2019-01-28T10:44:59.355Z,0.30
2019-01-28T10:45:58.937Z,0.20
2019-01-28T10:46:58.967Z,0.50
2019-01-28T10:48:00.860Z,0.30
2019-01-28T10:48:59.009Z,0.50
2019-01-28T10:49:58.892Z,0.20
2019-01-28T10:50:59.201Z,0.20
2019-01-28T10:51:58.873Z,0.30
2019-01-28T10:52:58.887Z,0.10
2019-01-28T10:53:58.857Z,0.20
2019-01-28T10:54:58.928Z,0.20
2019-01-28T10:55:58.806Z,0.20
2019-01-28T10:56:58.942Z,0.20
2019-01-28T10:57:58.798Z,0.20
2019-01-28T10:58:58.926Z,0.20
2019-01-28T10:59:58.765Z,0.30
2019-01-28T11:00:58.889Z,0.20
2019-01-28T11:01:58.795Z,0.20
2019-01-28T11:02:58.745Z,0.30
2019-01-28T11:03:58.728Z,0.20
2019-01-28T11:04:58.844Z,0.20
2019-01-28T11:05:58.699Z,0.20
2019-01-28T11:06:58.781Z,0.10
2019-01-28T11:07:58.759Z,0.10
2019-01-28T11:08:58.833Z,0.20
2019-01-28T11:09:58.643Z,0.20
2019-01-28T11:10:58.791Z,0.20
2019-01-28T11:11:58.742Z,0.10
2019-01-28T11:12:58.833Z,0.30
2019-01-28T11:13:58.735Z,0.20
2019-01-28T11:14:58.793Z,0.10
2019-01-28T11:15:58.714Z,0.20
2019-01-28T11:16:58.699Z,0.20
2019-01-28T11:17:58.566Z,0.20
2019-01-28T11:18:58.762Z,0.20
2019-01-28T11:19:59.427Z,0.20
2019-01-28T11:20:58.589Z,0.10
2019-01-28T11:21:58.513Z,0.20
2019-01-28T11:22:58.699Z,0.20
2019-01-28T11:23:58.671Z,0.10
2019-01-28T11:24:58.572Z,0.20
2019-01-28T11:25:58.731Z,0.20
2019-01-28T11:26:58.499Z,0.10
2019-01-28T11:27:58.492Z,0.20
2019-01-28T11:28:58.562Z,0.10
2019-01-28T11:29:58.464Z,0.10
2019-01-28T11:30:58.594Z,0.20
2019-01-28T11:31:58.440Z,0.20
2019-01-28T11:32:58.535Z,0.10
2019-01-28T11:33:58.442Z,0.20
2019-01-28T11:34:58.584Z,0.20
2019-01-28T11:36:05.167Z,0.10
2019-01-28T11:36:59.439Z,0.20
2019-01-28T11:37:58.439Z,0.10
2019-01-28T11:38:58.406Z,0.20
2019-01-28T11:39:58.365Z,0.20
2019-01-28T11:40:58.414Z,0.20
2019-01-28T11:41:58.303Z,0.20
2019-01-28T11:42:58.418Z,0.10
2019-01-28T11:43:58.430Z,0.10
2019-01-28T11:44:58.486Z,0.20
2019-01-28T11:45:58.462Z,0.20
2019-01-28T11:46:58.492Z,0.20
2019-01-28T11:47:58.262Z,0.20
2019-01-28T11:49:05.578Z,0.20
2019-01-28T11:49:59.355Z,0.10
2019-01-28T11:50:58.255Z,0.20
2019-01-28T11:51:58.252Z,0.20
2019-01-28T11:52:58.321Z,0.10
2019-01-28T11:53:58.165Z,0.30
2019-01-28T11:54:58.214Z,0.20
2019-01-28T11:55:58.165Z,0.10
2019-01-28T11:56:58.347Z,0.20
2019-01-28T11:57:58.164Z,0.20
2019-01-28T11:58:58.311Z,0.10
2019-01-28T11:59:58.115Z,0.20
2019-01-28T12:00:58.157Z,0.20
2019-01-28T12:01:58.077Z,0.10
2019-01-28T12:02:58.164Z,0.20
2019-01-28T12:03:58.086Z,0.10
2019-01-28T12:04:58.533Z,0.20
2019-01-28T12:05:58.097Z,0.20
2019-01-28T12:06:58.064Z,0.10
2019-01-28T12:07:58.042Z,0.30
2019-01-28T12:08:58.462Z,0.20
2019-01-28T12:09:58.025Z,0.10
2019-01-28T12:10:58.095Z,0.30
2019-01-28T12:11:58.102Z,0.10
2019-01-28T12:12:58.007Z,0.10
2019-01-28T12:13:57.952Z,0.20
2019-01-28T12:14:58.097Z,0.20
2019-01-28T12:15:57.924Z,0.10
2019-01-28T12:16:58.062Z,0.20
2019-01-28T12:17:57.919Z,0.20
2019-01-28T12:19:00.036Z,0.10
2019-01-28T12:19:57.923Z,0.20
2019-01-28T12:20:59.900Z,0.10
2019-01-28T12:21:57.865Z,0.20
2019-01-28T12:22:57.861Z,0.20
2019-01-28T12:23:57.855Z,0.10
2019-01-28T12:24:57.892Z,0.30
2019-01-28T12:25:57.864Z,0.20
2019-01-28T12:26:57.887Z,0.20
2019-01-28T12:27:57.798Z,0.30
2019-01-28T12:28:57.800Z,0.10
2019-01-28T12:29:57.786Z,0.10
2019-01-28T12:30:57.866Z,0.20
2019-01-28T12:31:57.758Z,0.20
2019-01-28T12:32:57.849Z,0.10
2019-01-28T12:33:57.736Z,0.30
2019-01-28T12:34:57.743Z,0.20
2019-01-28T12:35:57.724Z,0.10
2019-01-28T12:36:57.754Z,0.20
2019-01-28T12:37:57.692Z,0.20
2019-01-28T12:38:57.782Z,0.10
2019-01-28T12:39:57.694Z,0.20
2019-01-28T12:40:57.759Z,0.20
2019-01-28T12:41:57.704Z,0.20
2019-01-28T12:42:57.696Z,0.20
2019-01-28T12:43:57.656Z,0.20
2019-01-28T12:44:57.727Z,0.20
2019-01-28T12:45:57.660Z,0.20
2019-01-28T12:46:57.629Z,0.20
2019-01-28T12:47:57.579Z,0.20
2019-01-28T12:48:57.655Z,0.20
2019-01-28T12:49:57.555Z,0.10
2019-01-28T12:50:57.669Z,0.20
2019-01-28T12:51:57.552Z,0.20
2019-01-28T12:52:57.586Z,0.20
2019-01-28T12:53:57.512Z,0.20
2019-01-28T12:54:57.568Z,0.20
2019-01-28T12:55:57.531Z,0.10
2019-01-28T12:56:57.599Z,0.20
2019-01-28T12:57:57.474Z,0.20
2019-01-28T12:58:57.493Z,0.10
2019-01-28T12:59:57.477Z,0.20
2019-01-28T13:00:57.675Z,0.20
2019-01-28T13:01:57.431Z,0.10
2019-01-28T13:02:57.521Z,0.20
2019-01-28T13:03:57.407Z,0.20
2019-01-28T13:04:57.562Z,0.10
2019-01-28T13:05:57.447Z,0.20
2019-01-28T13:06:59.392Z,0.20
2019-01-28T13:07:57.480Z,0.20
2019-01-28T13:08:57.497Z,0.20
2019-01-28T13:09:57.340Z,0.10
2019-01-28T13:10:57.390Z,0.20
2019-01-28T13:11:57.370Z,0.20
2019-01-28T13:12:57.411Z,0.20
2019-01-28T13:13:57.298Z,0.20
2019-01-28T13:14:57.319Z,0.10
2019-01-28T13:15:57.283Z,0.10
2019-01-28T13:16:57.335Z,0.20
2019-01-28T13:17:57.260Z,0.20